Time;durP1;ratioP1;P1;durP2;ratioP2;P2;SDS_P1;SDS_P2;PMS_P1;PMS_P2;Temp;Humidity;BMP_temperature;BMP_pressure;BME280_temperature;BME280_humidity;BME280_pressure;Samples;Min_cycle;Max_cycle;Signal;HPM_P1;HPM_P2
2021/04/18 00:00:46;;;;;;;55.22;30.48;;;;;;;7.18;77.21;100581.81;5045853;27;97414;-74
2021/04/18 00:03:11;;;;;;;46.13;29.50;;;;;;;7.17;77.00;100587.94;5051624;27;98434;-74
2021/04/18 00:05:37;;;;;;;44.92;29.05;;;;;;;7.19;76.93;100580.97;5069325;27;96706;-74
2021/04/18 00:08:03;;;;;;;42.17;28.88;;;;;;;7.23;76.78;100580.00;5048368;27;97338;-75
2021/04/18 00:10:36;;;;;;;41.72;29.40;;;;;;;7.16;76.87;100584.47;5062934;27;97400;-74
2021/04/18 00:13:03;;;;;;;44.17;29.50;;;;;;;7.13;76.97;100588.88;5050806;27;101237;-75
2021/04/18 00:15:29;;;;;;;45.35;28.73;;;;;;;7.14;77.20;100581.00;5032894;27;97860;-74
2021/04/18 00:17:55;;;;;;;42.45;28.42;;;;;;;7.18;76.55;100580.06;5047612;27;97353;-74
2021/04/18 00:20:21;;;;;;;41.55;27.95;;;;;;;7.19;76.72;100580.97;5046982;27;98034;-74
2021/04/18 00:22:46;;;;;;;47.42;29.05;;;;;;;7.19;76.88;100586.19;5050563;27;101095;-74
2021/04/18 00:25:14;;;;;;;44.67;29.65;;;;;;;7.23;77.12;100582.63;5051989;27;97317;-74
2021/04/18 00:27:40;;;;;;;43.70;28.80;;;;;;;7.25;76.52;100584.31;5047631;27;96796;-79
2021/04/18 00:30:08;;;;;;;40.55;27.52;;;;;;;7.29;76.67;100579.91;5046366;27;98639;-74
2021/04/18 00:32:34;;;;;;;40.88;27.58;;;;;;;7.31;76.56;100582.50;5051546;27;100808;-74
2021/04/18 00:34:59;;;;;;;45.63;28.77;;;;;;;7.25;76.63;100575.63;5051166;27;96721;-75
2021/04/18 00:37:25;;;;;;;43.35;28.73;;;;;;;7.25;76.57;100575.63;5069139;27;96833;-74
2021/04/18 00:39:50;;;;;;;40.75;28.45;;;;;;;7.26;76.60;100567.75;5033169;27;101475;-74
2021/04/18 00:42:16;;;;;;;40.97;28.75;;;;;;;7.26;76.61;100570.38;5068463;27;98218;-74
2021/04/18 00:44:42;;;;;;;47.92;29.65;;;;;;;7.25;76.54;100571.28;5052977;27;97042;-74
2021/04/18 00:47:08;;;;;;;44.05;29.17;;;;;;;7.25;76.35;100573.88;5073875;27;96861;-74
2021/04/18 00:49:34;;;;;;;42.90;29.73;;;;;;;7.25;76.37;100579.09;5057976;27;101817;-75
2021/04/18 00:51:59;;;;;;;49.88;30.73;;;;;;;7.28;76.41;100567.75;5054022;27;97747;-74
2021/04/18 00:54:25;;;;;;;45.63;30.63;;;;;;;7.33;76.33;100558.09;5057366;27;97235;-74
2021/04/18 00:56:50;;;;;;;44.28;30.25;;;;;;;7.34;75.89;100556.34;5054266;27;96857;-75
2021/04/18 00:59:16;;;;;;;44.85;31.67;;;;;;;7.31;75.99;100551.16;5052605;27;101197;-75
2021/04/18 01:01:42;;;;;;;44.72;30.00;;;;;;;7.26;76.45;100551.22;5056463;27;101398;-80
2021/04/18 01:04:08;;;;;;;49.60;31.20;;;;;;;7.21;76.25;100551.31;5057210;27;97233;-74
2021/04/18 01:06:33;;;;;;;46.92;31.45;;;;;;;7.20;76.62;100546.97;5032289;27;97000;-75
2021/04/18 01:08:59;;;;;;;45.90;30.05;;;;;;;7.19;76.61;100541.78;5070063;27;97485;-75
2021/04/18 01:11:25;;;;;;;40.95;30.58;;;;;;;7.15;76.50;100538.34;5054297;27;97858;-74
2021/04/18 01:13:51;;;;;;;45.63;31.63;;;;;;;7.18;76.25;100537.44;5074496;27;96925;-74
2021/04/18 01:16:17;;;;;;;46.50;31.08;;;;;;;7.14;76.66;100541.84;5057163;27;96926;-74
2021/04/18 01:18:43;;;;;;;51.67;32.00;;;;;;;7.16;76.53;100537.47;5040279;27;101586;-78
2021/04/18 01:21:12;;;;;;;51.22;32.00;;;;;;;7.07;76.63;100535.03;5054444;27;99504;-74
2021/04/18 01:23:41;;;;;;;44.80;31.00;;;;;;;7.12;76.78;100534.94;5054979;27;96818;-80
2021/04/18 01:26:30;;;;;;;42.20;30.40;;;;;;;7.07;76.59;100539.34;5057963;27;96795;-74
2021/04/18 01:28:57;;;;;;;43.90;30.42;;;;;;;7.16;76.31;100542.69;5022767;27;97553;-74
2021/04/18 01:31:24;;;;;;;45.03;31.60;;;;;;;7.14;76.72;100549.69;5033477;27;97509;-75
2021/04/18 01:33:50;;;;;;;41.30;30.38;;;;;;;7.13;76.59;100549.72;5074497;27;97130;-75
2021/04/18 01:36:19;;;;;;;49.38;30.83;;;;;;;7.10;76.99;100547.13;5057731;27;97120;-74
2021/04/18 01:38:45;;;;;;;43.85;31.20;;;;;;;7.12;76.89;100551.44;5056588;27;101161;-74
2021/04/18 01:41:11;;;;;;;44.25;30.25;;;;;;;7.07;76.52;100545.47;5057360;27;101783;-74
2021/04/18 01:43:40;;;;;;;42.00;29.85;;;;;;;7.16;76.10;100544.47;5074613;27;96850;-74
2021/04/18 01:46:06;;;;;;;44.38;29.83;;;;;;;7.28;76.40;100543.38;5074459;27;96841;-74
2021/04/18 01:48:33;;;;;;;50.30;32.08;;;;;;;7.32;75.68;100532.00;5039862;27;101321;-75
2021/04/18 01:51:04;;;;;;;49.55;31.98;;;;;;;7.15;76.23;100535.72;5056736;27;97857;-75
2021/04/18 01:53:30;;;;;;;43.08;31.65;;;;;;;7.08;76.67;100534.13;5053840;27;96758;-74
2021/04/18 01:55:56;;;;;;;47.53;30.23;;;;;;;7.00;76.99;100531.63;5051007;27;97268;-74
2021/04/18 01:58:22;;;;;;;49.97;30.17;;;;;;;7.10;76.27;100539.31;5053857;27;100929;-74
2021/04/18 02:01:13;;;;;;;48.47;31.80;;;;;;;7.07;76.40;100539.34;5023461;27;97752;-75
2021/04/18 02:03:42;;;;;;;49.67;29.17;;;;;;;7.14;76.62;100535.78;5057227;27;96717;-80
2021/04/18 02:06:09;;;;;;;44.70;30.20;;;;;;;7.13;76.26;100531.47;5074183;27;97209;-74
2021/04/18 02:08:44;;;;;;;44.55;31.05;;;;;;;7.15;76.41;100533.13;5052956;27;101593;-74
2021/04/18 02:11:10;;;;;;;47.63;30.13;;;;;;;7.10;76.69;100529.75;5074278;27;97859;-76
2021/04/18 02:13:36;;;;;;;46.33;31.13;;;;;;;7.08;76.79;100528.91;5040118;27;96851;-74
2021/04/18 02:16:27;;;;;;;40.72;29.95;;;;;;;7.10;76.55;100534.97;5060869;27;97376;-74
2021/04/18 02:18:59;;;;;;;41.72;30.52;;;;;;;7.15;76.76;100532.28;5043365;27;101535;-74
2021/04/18 02:21:27;;;;;;;43.25;28.50;;;;;;;7.13;76.66;100531.47;5056957;27;97379;-76
2021/04/18 02:23:53;;;;;;;41.17;29.05;;;;;;;7.19;76.14;100528.75;5038488;27;97225;-74
2021/04/18 02:26:20;;;;;;;43.50;27.65;;;;;;;7.16;76.32;100521.81;5048087;27;96841;-74
2021/04/18 02:28:48;;;;;;;39.40;27.80;;;;;;;7.15;76.44;100527.03;5039328;27;101638;-74
2021/04/18 02:31:16;;;;;;;41.25;28.00;;;;;;;7.12;76.40;100527.97;5053233;27;101443;-74
2021/04/18 02:33:42;;;;;;;40.43;29.53;;;;;;;7.04;76.57;100524.63;5038140;27;97265;-79
2021/04/18 02:36:08;;;;;;;42.33;28.00;;;;;;;7.01;76.80;100525.53;5039917;27;96888;-74
2021/04/18 02:38:35;;;;;;;43.50;28.40;;;;;;;7.14;76.65;100522.72;5020758;27;101208;-73
2021/04/18 02:41:01;;;;;;;40.72;27.70;;;;;;;7.08;76.42;100523.69;5026439;27;101615;-73
2021/04/18 02:43:27;;;;;;;41.58;29.70;;;;;;;7.09;76.16;100517.56;5072613;27;97045;-75
2021/04/18 02:45:54;;;;;;;39.17;27.17;;;;;;;7.04;76.69;100508.97;5052720;27;97156;-73
2021/04/18 02:48:19;;;;;;;39.90;27.47;;;;;;;7.06;76.81;100516.75;5051610;27;101372;-73
2021/04/18 02:50:46;;;;;;;41.97;29.30;;;;;;;7.02;76.67;100518.56;5035389;27;101153;-74
2021/04/18 02:53:11;;;;;;;38.33;27.30;;;;;;;7.00;76.69;100509.91;5072154;27;96995;-73
2021/04/18 02:55:37;;;;;;;44.58;27.60;;;;;;;6.99;76.99;100509.03;5052623;27;97208;-74
2021/04/18 02:58:18;;;;;;;36.60;26.92;;;;;;;7.03;76.85;100502.00;5045635;27;102159;-73
2021/04/18 03:00:47;;;;;;;36.03;28.03;;;;;;;7.09;76.57;100488.00;5055958;27;101251;-73
2021/04/18 03:03:13;;;;;;;40.65;26.90;;;;;;;7.07;76.65;100494.97;5055927;27;97075;-73
2021/04/18 03:05:39;;;;;;;44.05;27.63;;;;;;;7.03;76.63;100483.75;5056295;27;97077;-73
2021/04/18 03:08:06;;;;;;;36.97;27.52;;;;;;;6.98;76.65;100491.66;5054332;27;98283;-73
2021/04/18 03:10:32;;;;;;;39.55;27.70;;;;;;;7.01;76.48;100495.94;5042373;27;101036;-73
2021/04/18 03:12:58;;;;;;;41.58;28.13;;;;;;;7.00;76.82;100497.69;5055149;27;97112;-74
2021/04/18 03:15:25;;;;;;;40.85;27.70;;;;;;;6.98;76.86;100490.78;5055952;27;96931;-73
2021/04/18 03:17:52;;;;;;;38.92;27.40;;;;;;;7.05;76.35;100481.97;5055078;27;101382;-73
2021/04/18 03:20:19;;;;;;;44.58;29.13;;;;;;;6.99;76.96;100492.53;5073418;27;97755;-73
2021/04/18 03:22:47;;;;;;;40.47;27.92;;;;;;;7.02;76.66;100488.09;5055288;27;97099;-73
2021/04/18 03:25:14;;;;;;;39.25;27.70;;;;;;;7.03;76.81;100487.19;5037276;27;96882;-73
2021/04/18 03:27:42;;;;;;;41.75;28.52;;;;;;;7.03;76.75;100478.53;5056454;27;97482;-79
2021/04/18 03:30:14;;;;;;;44.27;31.60;;;;;;;7.04;76.55;100488.09;5026316;27;101484;-73
2021/04/18 03:32:52;;;;;;;48.00;32.17;;;;;;;7.09;76.19;100480.16;5052596;27;97372;-73
2021/04/18 03:35:18;;;;;;;43.25;31.38;;;;;;;7.00;76.86;100483.78;5052186;27;97532;-73
2021/04/18 03:37:46;;;;;;;47.08;30.48;;;;;;;7.02;76.68;100484.63;5051174;27;101418;-78
2021/04/18 03:40:12;;;;;;;46.65;31.25;;;;;;;7.02;76.93;100488.09;5055344;27;100682;-73
2021/04/18 03:42:37;;;;;;;43.97;31.05;;;;;;;7.03;76.48;100486.34;5044659;27;97121;-73
2021/04/18 03:45:06;;;;;;;45.67;31.65;;;;;;;7.01;76.95;100477.66;5052043;27;97422;-73
2021/04/18 03:47:32;;;;;;;49.95;33.58;;;;;;;6.99;76.71;100475.09;5054669;27;101746;-73
2021/04/18 03:50:05;;;;;;;42.72;30.58;;;;;;;7.08;76.60;100476.69;5055660;27;101108;-73
2021/04/18 03:52:49;;;;;;;43.00;28.73;;;;;;;7.05;76.47;100475.91;5041313;27;96834;-73
2021/04/18 03:55:17;;;;;;;40.33;27.50;;;;;;;7.01;76.67;100482.91;5052231;27;96994;-73
2021/04/18 03:57:42;;;;;;;40.72;29.23;;;;;;;7.00;76.67;100486.41;5067857;27;98092;-77
2021/04/18 04:00:09;;;;;;;44.47;30.65;;;;;;;7.03;76.74;100481.97;5051458;27;101647;-73
2021/04/18 04:02:41;;;;;;;46.65;30.33;;;;;;;7.00;76.51;100481.19;5084279;27;97259;-73
2021/04/18 04:05:09;;;;;;;42.97;28.35;;;;;;;7.01;76.72;100482.91;5051341;27;97007;-73
2021/04/18 04:07:36;;;;;;;46.83;30.65;;;;;;;7.00;76.62;100484.66;5071483;27;100321;-73
2021/04/18 04:10:05;;;;;;;39.67;28.63;;;;;;;6.98;76.89;100482.94;5050965;27;100937;-73
2021/04/18 04:12:32;;;;;;;38.08;28.33;;;;;;;6.99;76.98;100482.06;5052314;27;97183;-74
2021/04/18 04:14:59;;;;;;;36.92;28.02;;;;;;;7.04;76.42;100480.25;5054657;27;97316;-74
2021/04/18 04:17:26;;;;;;;44.00;28.83;;;;;;;7.02;76.93;100482.03;5054884;27;101655;-73
2021/04/18 04:20:13;;;;;;;39.90;30.60;;;;;;;7.04;76.76;100488.09;5042947;27;101966;-73
2021/04/18 04:23:14;;;;;;;36.63;28.38;;;;;;;7.07;76.96;100484.53;5005068;28;96984;-73
2021/04/18 04:25:39;;;;;;;43.63;29.42;;;;;;;7.05;76.83;100483.72;5022753;27;97214;-73
2021/04/18 04:28:07;;;;;;;44.60;30.60;;;;;;;7.09;76.80;100481.03;5062979;27;97602;-73
2021/04/18 04:30:34;;;;;;;39.30;29.65;;;;;;;7.16;76.63;100485.25;5054040;27;101315;-73
2021/04/18 04:32:59;;;;;;;39.95;27.92;;;;;;;7.25;76.37;100484.25;5053541;27;97258;-73
2021/04/18 04:35:25;;;;;;;41.05;29.98;;;;;;;7.21;76.78;100477.34;5054801;27;97040;-74
2021/04/18 04:37:50;;;;;;;41.83;28.85;;;;;;;7.20;76.79;100484.31;5070482;27;98156;-73
2021/04/18 04:40:16;;;;;;;40.60;28.98;;;;;;;7.21;76.58;100485.16;5038036;27;101405;-73
2021/04/18 04:42:42;;;;;;;40.03;29.10;;;;;;;7.23;76.93;100480.78;5071836;27;97317;-74
2021/04/18 04:45:08;;;;;;;46.65;28.15;;;;;;;7.23;76.46;100479.03;5053601;27;97281;-73
2021/04/18 04:47:34;;;;;;;47.70;29.40;;;;;;;7.27;76.89;100477.22;5049692;27;101276;-73
2021/04/18 04:50:00;;;;;;;42.45;29.48;;;;;;;7.33;76.47;100477.13;5034139;27;96670;-73
2021/04/18 04:52:26;;;;;;;41.78;27.98;;;;;;;7.42;76.48;100482.19;5047761;27;97102;-73
2021/04/18 04:54:52;;;;;;;41.05;29.80;;;;;;;7.43;76.03;100475.22;5049856;27;96959;-73
2021/04/18 04:57:18;;;;;;;41.67;27.67;;;;;;;7.43;75.96;100477.81;5068603;27;98036;-73
2021/04/18 04:59:43;;;;;;;42.40;30.52;;;;;;;7.46;75.95;100483.84;5031709;27;97788;-76
2021/04/18 05:02:09;;;;;;;41.40;28.95;;;;;;;7.50;76.14;100482.03;5059751;27;96687;-73
2021/04/18 05:04:35;;;;;;;43.22;31.05;;;;;;;7.47;75.87;100477.72;5048327;27;96830;-73
2021/04/18 05:07:01;;;;;;;37.67;28.48;;;;;;;7.59;75.77;100473.16;5067151;27;101617;-73
2021/04/18 05:09:26;;;;;;;43.95;31.77;;;;;;;7.59;75.88;100478.38;5068353;27;98460;-73
2021/04/18 05:11:52;;;;;;;45.17;32.90;;;;;;;7.61;75.98;100480.06;5045809;27;97263;-74
2021/04/18 05:14:18;;;;;;;37.92;28.33;;;;;;;7.65;75.47;100480.88;5046461;27;97047;-74
2021/04/18 05:16:43;;;;;;;41.85;28.88;;;;;;;7.63;75.73;100487.91;5047066;27;101060;-74
2021/04/18 05:19:09;;;;;;;44.35;28.92;;;;;;;7.60;75.90;100480.13;5050089;27;101565;-74
2021/04/18 05:21:34;;;;;;;41.33;29.10;;;;;;;7.62;75.93;100488.75;5033690;27;96643;-74
2021/04/18 05:24:00;;;;;;;34.22;25.80;;;;;;;7.65;75.75;100486.09;5066645;27;97238;-74
2021/04/18 05:26:26;;;;;;;38.92;28.00;;;;;;;7.58;75.96;100482.75;5069159;27;97879;-74
2021/04/18 05:28:53;;;;;;;39.63;29.45;;;;;;;7.59;75.75;100484.50;5067444;27;97314;-74
2021/04/18 05:31:19;;;;;;;39.15;29.77;;;;;;;7.62;75.83;100492.25;5031926;27;97143;-73
2021/04/18 05:33:45;;;;;;;45.22;31.08;;;;;;;7.67;75.75;100487.78;5050925;27;97246;-77
2021/04/18 05:36:11;;;;;;;46.05;32.00;;;;;;;7.81;75.39;100481.44;5049806;27;101403;-74
2021/04/18 05:38:36;;;;;;;45.85;33.22;;;;;;;7.85;75.21;100493.53;5054251;27;100944;-73
2021/04/18 05:41:02;;;;;;;44.20;34.38;;;;;;;7.86;75.40;100488.31;5053125;27;97140;-74
2021/04/18 05:43:28;;;;;;;51.83;37.08;;;;;;;7.93;74.96;100495.09;5071422;27;97219;-74
2021/04/18 05:45:53;;;;;;;53.05;37.90;;;;;;;8.09;74.60;100497.44;5053262;27;98110;-74
2021/04/18 05:48:19;;;;;;;52.20;38.22;;;;;;;8.04;74.79;100500.13;5053365;27;101078;-74
2021/04/18 05:50:45;;;;;;;51.35;39.03;;;;;;;8.07;74.44;100487.00;5054102;27;96739;-74
2021/04/18 05:53:11;;;;;;;50.97;39.85;;;;;;;8.02;74.75;100495.81;5070510;27;97868;-74
2021/04/18 05:55:37;;;;;;;57.45;42.55;;;;;;;8.02;74.49;100499.28;5050464;27;101200;-73
2021/04/18 05:58:04;;;;;;;61.05;43.40;;;;;;;7.97;74.73;100503.78;5028801;27;100886;-74
2021/04/18 06:00:30;;;;;;;53.83;42.45;;;;;;;8.14;74.12;100501.66;5033004;27;97047;-74
2021/04/18 06:02:55;;;;;;;55.17;42.10;;;;;;;8.16;74.09;100502.47;5049483;27;96896;-74
2021/04/18 06:05:21;;;;;;;53.67;41.28;;;;;;;8.32;73.59;100510.00;5071044;27;97664;-74
2021/04/18 06:07:46;;;;;;;55.17;43.20;;;;;;;8.36;73.67;100506.44;5050143;27;101161;-78
2021/04/18 06:10:13;;;;;;;55.42;41.35;;;;;;;8.31;74.09;100513.50;5062165;27;97234;-74
2021/04/18 06:12:38;;;;;;;51.95;40.15;;;;;;;8.36;73.98;100504.66;5053472;27;96735;-74
2021/04/18 06:15:05;;;;;;;55.90;40.65;;;;;;;8.28;73.79;100506.59;5049247;27;101189;-74
2021/04/18 06:17:31;;;;;;;52.20;39.72;;;;;;;8.32;73.57;100504.75;5050431;27;98050;-75
2021/04/18 06:19:56;;;;;;;50.10;38.67;;;;;;;8.34;73.65;100506.44;5062710;27;97113;-74
2021/04/18 06:22:22;;;;;;;50.20;39.00;;;;;;;8.33;73.82;100504.75;5071991;27;97110;-73
2021/04/18 06:24:47;;;;;;;52.88;37.75;;;;;;;8.47;73.06;100508.84;5052501;27;100714;-78
2021/04/18 06:27:13;;;;;;;48.28;36.88;;;;;;;8.44;72.84;100515.00;5052253;27;100714;-73
2021/04/18 06:29:39;;;;;;;43.35;34.33;;;;;;;8.37;72.73;100502.91;5070194;27;96984;-73
2021/04/18 06:32:05;;;;;;;52.67;35.13;;;;;;;8.19;73.52;100504.16;5045233;27;97283;-73
2021/04/18 06:34:31;;;;;;;45.42;34.15;;;;;;;8.23;73.25;100511.06;5039756;27;101076;-74
2021/04/18 06:36:56;;;;;;;43.97;32.75;;;;;;;8.34;72.72;100508.22;5023552;27;101488;-73
2021/04/18 06:39:22;;;;;;;45.75;33.53;;;;;;;8.36;72.94;100506.44;5060232;27;97369;-74
2021/04/18 06:41:53;;;;;;;47.20;33.53;;;;;;;8.32;73.32;100499.53;5041833;27;98117;-78
2021/04/18 06:44:20;;;;;;;42.72;34.70;;;;;;;8.32;73.06;100495.19;5061750;27;97961;-73
2021/04/18 06:46:48;;;;;;;47.90;35.92;;;;;;;8.34;72.77;100490.75;5024609;27;101443;-74
2021/04/18 06:49:14;;;;;;;49.65;36.33;;;;;;;8.45;72.67;100505.41;5021691;27;97585;-73
2021/04/18 06:51:40;;;;;;;44.83;35.05;;;;;;;8.58;72.15;100505.09;5042568;27;96992;-73
2021/04/18 06:54:07;;;;;;;47.35;35.22;;;;;;;8.62;72.13;100500.66;5057246;27;97795;-73
2021/04/18 06:56:33;;;;;;;49.72;33.63;;;;;;;8.47;72.84;100503.63;5042306;27;100551;-74
2021/04/18 06:58:59;;;;;;;47.90;36.97;;;;;;;8.51;72.94;100503.50;5058352;27;97081;-74
2021/04/18 07:01:25;;;;;;;43.42;33.75;;;;;;;8.72;72.18;100496.91;5043724;27;97024;-73
2021/04/18 07:04:14;;;;;;;48.10;35.55;;;;;;;8.75;72.01;100502.06;5042774;27;101170;-78
2021/04/18 07:06:49;;;;;;;48.38;35.97;;;;;;;8.66;72.32;100504.03;5060378;27;98480;-73
2021/04/18 07:09:18;;;;;;;51.15;37.78;;;;;;;8.68;71.55;100512.72;5043337;27;97103;-74
2021/04/18 07:11:59;;;;;;;45.35;36.33;;;;;;;8.70;72.64;100511.81;5026868;27;96942;-74
2021/04/18 07:14:29;;;;;;;52.30;36.70;;;;;;;8.75;71.85;100511.69;5039184;27;101218;-73
2021/04/18 07:17:15;;;;;;;52.42;38.30;;;;;;;8.80;71.31;100515.06;5044539;27;101477;-74
2021/04/18 07:19:47;;;;;;;50.63;36.63;;;;;;;8.64;72.09;100506.72;5042724;27;97018;-73
2021/04/18 07:22:25;;;;;;;50.97;39.00;;;;;;;8.69;71.87;100510.06;5057710;27;97889;-74
2021/04/18 07:24:56;;;;;;;54.55;37.83;;;;;;;8.74;72.03;100515.19;5040031;27;98028;-74
2021/04/18 07:27:22;;;;;;;54.67;38.28;;;;;;;8.83;71.86;100510.59;5039608;27;101143;-73
2021/04/18 07:29:58;;;;;;;49.53;36.95;;;;;;;8.95;71.24;100519.06;5051814;27;96811;-75
2021/04/18 07:32:26;;;;;;;48.20;36.67;;;;;;;8.99;71.35;100515.50;5035935;27;96993;-74
2021/04/18 07:34:52;;;;;;;48.42;38.25;;;;;;;9.18;71.07;100519.34;5069161;27;97589;-71
2021/04/18 07:37:25;;;;;;;48.53;39.45;;;;;;;9.29;71.04;100516.47;5070435;27;97926;-74
2021/04/18 07:40:00;;;;;;;50.78;39.03;;;;;;;9.27;70.87;100516.50;5052309;27;97229;-74
2021/04/18 07:42:29;;;;;;;54.10;39.30;;;;;;;9.31;70.65;100517.31;5041959;27;97147;-74
2021/04/18 07:44:56;;;;;;;46.85;36.05;;;;;;;9.26;71.00;100520.03;5064520;27;101221;-74
2021/04/18 07:47:23;;;;;;;45.42;34.65;;;;;;;9.39;71.03;100527.56;5024677;27;101133;-74
2021/04/18 07:49:49;;;;;;;48.30;35.88;;;;;;;9.57;70.13;100523.59;5051994;27;96836;-75
2021/04/18 07:52:16;;;;;;;48.78;35.67;;;;;;;9.59;70.44;100527.03;5051956;27;97057;-75
2021/04/18 07:54:43;;;;;;;45.13;34.08;;;;;;;9.63;69.58;100512.94;5050890;27;98049;-75
2021/04/18 07:57:09;;;;;;;43.42;32.53;;;;;;;9.64;69.59;100519.94;5052390;27;98366;-75
2021/04/18 07:59:35;;;;;;;45.17;34.75;;;;;;;9.63;69.92;100518.19;5037245;27;96749;-75
2021/04/18 08:02:00;;;;;;;42.08;32.88;;;;;;;9.55;70.23;100521.03;5040456;27;97216;-75
2021/04/18 08:04:27;;;;;;;45.28;33.78;;;;;;;9.68;70.51;100516.31;5047023;27;97944;-75
2021/04/18 08:06:54;;;;;;;44.88;33.22;;;;;;;9.96;69.31;100513.78;5021867;27;101291;-75
2021/04/18 08:09:22;;;;;;;43.85;30.85;;;;;;;9.85;68.84;100516.69;5033457;27;96984;-75
2021/04/18 08:12:06;;;;;;;43.45;30.60;;;;;;;9.96;69.18;100519.03;5034861;27;97502;-75
2021/04/18 08:14:33;;;;;;;43.90;32.33;;;;;;;10.11;67.90;100517.72;5051734;27;101814;-79
2021/04/18 08:17:07;;;;;;;43.60;32.10;;;;;;;10.11;68.34;100521.22;5069183;27;97957;-76
2021/04/18 08:19:33;;;;;;;43.97;30.67;;;;;;;10.15;68.14;100511.47;5051245;27;97184;-79
2021/04/18 08:21:59;;;;;;;41.35;28.98;;;;;;;10.15;67.77;100519.34;5035249;27;96827;-76
2021/04/18 08:24:24;;;;;;;39.22;28.65;;;;;;;10.24;68.06;100519.09;5048519;27;100951;-75
2021/04/18 08:26:56;;;;;;;39.40;29.38;;;;;;;10.11;67.51;100515.09;5063195;27;97945;-76
2021/04/18 08:29:21;;;;;;;40.75;29.02;;;;;;;10.05;67.66;100517.91;5068395;27;97468;-78
2021/04/18 08:31:51;;;;;;;42.17;29.52;;;;;;;9.97;66.88;100516.34;5033744;27;97236;-75
2021/04/18 08:34:23;;;;;;;43.92;31.95;;;;;;;9.82;68.11;100522.03;5068753;27;101561;-75
2021/04/18 08:36:51;;;;;;;46.13;33.03;;;;;;;9.79;67.98;100518.66;5067668;27;101214;-75
2021/04/18 08:39:17;;;;;;;40.03;30.55;;;;;;;9.88;68.57;100508.75;5046147;27;96749;-76
2021/04/18 08:41:43;;;;;;;47.75;31.63;;;;;;;9.98;68.47;100517.25;5062631;27;97315;-76
2021/04/18 08:44:21;;;;;;;44.67;32.33;;;;;;;9.93;67.85;100522.59;5049355;27;100967;-76
2021/04/18 08:46:55;;;;;;;42.17;30.48;;;;;;;9.98;68.20;100509.38;5064060;27;97959;-75
2021/04/18 08:49:36;;;;;;;46.63;32.53;;;;;;;9.98;68.02;100510.22;5054526;27;98268;-74
2021/04/18 08:52:07;;;;;;;40.15;28.08;;;;;;;10.03;67.87;100520.56;5030774;27;96742;-75
2021/04/18 08:54:35;;;;;;;42.33;29.40;;;;;;;10.14;67.53;100522.88;5037904;27;97965;-76
2021/04/18 08:57:09;;;;;;;45.85;31.33;;;;;;;10.14;67.79;100522.88;5055613;27;97937;-75
2021/04/18 08:59:35;;;;;;;43.42;31.25;;;;;;;10.08;67.66;100520.44;5042297;27;96805;-74
2021/04/18 09:02:03;;;;;;;45.00;32.65;;;;;;;9.94;67.52;100518.22;5037149;27;96897;-75
2021/04/18 09:04:38;;;;;;;47.53;32.47;;;;;;;10.07;66.78;100516.13;5057002;27;97956;-81
2021/04/18 09:07:05;;;;;;;43.72;30.27;;;;;;;10.13;66.80;100519.41;5024433;27;101598;-75
2021/04/18 09:09:31;;;;;;;42.40;31.55;;;;;;;10.07;66.55;100519.59;5063410;27;97080;-75
2021/04/18 09:11:58;;;;;;;40.13;30.20;;;;;;;10.11;66.84;100522.97;5041445;27;97297;-75
2021/04/18 09:14:28;;;;;;;44.33;30.33;;;;;;;10.20;66.57;100515.69;5067709;27;98143;-75
2021/04/18 09:17:13;;;;;;;42.50;30.92;;;;;;;10.49;66.44;100511.38;5047320;27;101166;-75
2021/04/18 09:19:45;;;;;;;41.53;29.63;;;;;;;10.57;65.17;100511.16;5042797;27;97346;-75
2021/04/18 09:22:30;;;;;;;41.47;28.10;;;;;;;10.50;65.29;100513.09;5069334;27;96693;-75
2021/04/18 09:25:17;;;;;;;41.33;27.92;;;;;;;10.57;65.50;100516.41;5058538;27;98246;-75
2021/04/18 09:27:45;;;;;;;44.00;29.77;;;;;;;10.54;65.86;100519.13;5041056;27;97896;-75
2021/04/18 09:30:14;;;;;;;41.05;28.70;;;;;;;10.43;65.35;100514.19;5040184;27;97346;-75
2021/04/18 09:32:41;;;;;;;39.28;29.15;;;;;;;10.43;65.38;100522.91;5057453;27;97377;-75
2021/04/18 09:35:09;;;;;;;38.33;27.05;;;;;;;10.29;64.83;100525.09;5060516;27;98049;-76
2021/04/18 09:37:42;;;;;;;42.70;28.27;;;;;;;10.32;65.86;100516.28;5060260;27;97893;-76
2021/04/18 09:40:15;;;;;;;39.67;28.88;;;;;;;10.24;65.39;100515.59;5060648;27;96806;-75
2021/04/18 09:42:47;;;;;;;39.33;28.23;;;;;;;10.38;65.29;100516.09;5049468;27;97246;-76
2021/04/18 09:45:15;;;;;;;38.63;27.67;;;;;;;10.60;64.36;100518.94;5058631;27;98889;-75
2021/04/18 09:47:43;;;;;;;38.60;26.40;;;;;;;10.61;64.32;100515.38;5038661;27;97895;-76
2021/04/18 09:50:18;;;;;;;39.65;26.88;;;;;;;10.55;64.31;100515.56;5054893;27;96821;-76
2021/04/18 09:52:43;;;;;;;37.13;26.42;;;;;;;10.56;64.34;100514.66;5041596;27;96937;-74
2021/04/18 09:55:16;;;;;;;36.90;26.33;;;;;;;10.46;64.23;100518.47;5025197;27;102111;-75
2021/04/18 09:57:49;;;;;;;37.78;26.10;;;;;;;10.54;64.30;100513.88;5056163;27;100996;-75
2021/04/18 10:00:29;;;;;;;38.08;23.80;;;;;;;10.47;64.40;100518.47;5058517;27;96908;-74
2021/04/18 10:03:07;;;;;;;37.92;24.38;;;;;;;10.47;63.60;100525.44;5058423;27;97439;-75
2021/04/18 10:05:43;;;;;;;40.80;24.10;;;;;;;10.50;64.59;100517.47;5031448;27;101156;-77
2021/04/18 10:08:22;;;;;;;38.17;25.38;;;;;;;10.50;64.70;100509.59;5069907;27;97454;-74
2021/04/18 10:10:58;;;;;;;41.33;26.77;;;;;;;10.60;64.73;100513.69;5066755;27;97562;-75
2021/04/18 10:13:55;;;;;;;39.90;25.92;;;;;;;10.78;64.19;100520.09;5051493;27;97845;-75
2021/04/18 10:16:26;;;;;;;41.42;25.88;;;;;;;10.81;63.61;100526.13;5050363;27;101493;-73
2021/04/18 10:19:08;;;;;;;37.90;25.88;;;;;;;10.85;63.69;100519.03;5044550;27;98423;-73
2021/04/18 10:21:34;;;;;;;35.72;25.27;;;;;;;10.92;63.22;100519.69;5060000;27;97604;-78
2021/04/18 10:24:00;;;;;;;41.35;27.48;;;;;;;10.85;63.45;100527.75;5069118;27;96933;-78
2021/04/18 10:26:26;;;;;;;41.50;26.30;;;;;;;10.85;63.14;100524.28;5051221;27;99859;-78
2021/04/18 10:28:53;;;;;;;38.95;25.77;;;;;;;10.85;63.20;100524.28;5051081;27;97971;-81
2021/04/18 10:31:21;;;;;;;34.88;24.25;;;;;;;10.86;63.29;100526.84;5050696;27;96863;-80
2021/04/18 10:33:47;;;;;;;37.67;24.90;;;;;;;10.85;63.21;100525.13;5067601;27;97899;-79
2021/04/18 10:36:14;;;;;;;35.67;25.55;;;;;;;10.84;62.95;100520.75;5050709;27;101507;-80
2021/04/18 10:38:40;;;;;;;39.00;25.65;;;;;;;10.72;62.89;100529.03;5049956;27;101069;-79
2021/04/18 10:41:07;;;;;;;41.33;25.27;;;;;;;10.73;63.01;100522.00;5067855;27;96767;-80
2021/04/18 10:43:33;;;;;;;38.47;26.85;;;;;;;10.78;62.76;100528.00;5068036;27;97717;-73
2021/04/18 10:45:59;;;;;;;36.95;24.73;;;;;;;10.57;63.28;100526.91;5047767;27;101138;-77
2021/04/18 10:48:25;;;;;;;35.03;24.30;;;;;;;10.58;63.52;100532.09;5048975;27;100026;-79
2021/04/18 10:50:50;;;;;;;35.88;24.38;;;;;;;10.59;63.02;100523.31;5030639;27;96772;-76
2021/04/18 10:53:16;;;;;;;34.90;23.75;;;;;;;10.47;63.77;100526.31;5068086;27;96876;-77
2021/04/18 10:55:42;;;;;;;36.47;24.75;;;;;;;10.53;63.83;100514.75;5050100;27;100930;-75
2021/04/18 10:58:08;;;;;;;33.92;24.00;;;;;;;10.63;63.76;100522.31;5067982;27;97856;-75
2021/04/18 11:00:34;;;;;;;34.83;24.35;;;;;;;10.77;63.40;100523.66;5046472;27;97322;-74
2021/04/18 11:03:00;;;;;;;37.88;25.10;;;;;;;10.98;63.04;100529.97;5047337;27;96966;-75
2021/04/18 11:05:25;;;;;;;38.05;25.85;;;;;;;11.09;62.65;100523.47;5061203;27;98033;-75
2021/04/18 11:07:51;;;;;;;38.95;23.52;;;;;;;11.26;62.25;100522.06;5067409;27;97832;-74
2021/04/18 11:10:17;;;;;;;35.22;24.80;;;;;;;11.33;62.18;100526.19;5046757;27;97243;-74
2021/04/18 11:12:42;;;;;;;36.28;24.83;;;;;;;11.38;61.82;100521.63;5067326;27;97073;-77
2021/04/18 11:15:10;;;;;;;36.78;24.70;;;;;;;11.28;61.80;100521.06;5030401;27;101148;-77
2021/04/18 11:17:37;;;;;;;34.60;24.08;;;;;;;11.21;61.94;100523.97;5068042;27;97904;-78